createdAt,value
2022-08-09T00:00:05.003Z,17.01
2022-08-09T00:02:34.130Z,16.99
2022-08-09T00:06:15.584Z,17.14
2022-08-09T00:07:47.582Z,17.18
2022-08-09T00:10:21.049Z,17.16
2022-08-09T00:12:53.262Z,17.15
2022-08-09T00:15:26.616Z,17.17
2022-08-09T00:18:11.912Z,17.15
2022-08-09T00:20:42.611Z,17.21
2022-08-09T00:23:57.744Z,17.27
2022-08-09T00:26:05.188Z,17.29
2022-08-09T00:28:31.851Z,17.32
2022-08-09T00:31:01.158Z,17.30
2022-08-09T00:33:49.131Z,17.38
2022-08-09T00:36:18.040Z,17.38
2022-08-09T00:38:45.021Z,17.24
2022-08-09T00:41:13.134Z,17.28
2022-08-09T00:44:15.598Z,17.23
2022-08-09T00:46:57.891Z,17.21
2022-08-09T00:49:32.938Z,17.14
2022-08-09T00:52:05.261Z,17.15
2022-08-09T00:54:35.934Z,17.31
2022-08-09T00:57:10.131Z,17.29
2022-08-09T00:59:41.050Z,17.27
2022-08-09T01:02:15.438Z,17.22
2022-08-09T01:04:53.134Z,17.17
2022-08-09T01:07:37.599Z,17.08
2022-08-09T01:10:30.780Z,16.96
2022-08-09T01:12:57.154Z,16.85
2022-08-09T01:15:25.780Z,16.80
2022-08-09T01:17:56.769Z,16.74
2022-08-09T01:20:37.952Z,16.61
2022-08-09T01:24:01.842Z,16.62
2022-08-09T01:26:36.106Z,16.73
2022-08-09T01:29:03.918Z,16.71
2022-08-09T01:32:31.529Z,16.72
2022-08-09T01:34:19.737Z,16.74
2022-08-09T01:36:48.740Z,16.63
2022-08-09T01:39:16.328Z,16.65
2022-08-09T01:41:53.676Z,16.69
2022-08-09T01:44:23.811Z,16.66
2022-08-09T01:46:51.012Z,16.69
2022-08-09T01:49:24.004Z,16.78
2022-08-09T01:51:55.521Z,16.78
2022-08-09T01:54:32.617Z,16.85
2022-08-09T01:57:04.191Z,16.91
2022-08-09T01:59:32.376Z,16.95
2022-08-09T02:02:01.220Z,16.87
2022-08-09T02:04:29.501Z,16.88
2022-08-09T02:07:17.945Z,16.86
2022-08-09T02:10:01.203Z,16.97
2022-08-09T02:12:32.661Z,17.00
2022-08-09T02:15:01.366Z,16.96
2022-08-09T02:18:00.685Z,17.03
2022-08-09T02:20:25.299Z,16.96
2022-08-09T02:23:01.951Z,17.02
2022-08-09T02:25:30.732Z,17.07
2022-08-09T02:28:03.850Z,17.18
2022-08-09T02:30:54.611Z,17.22
2022-08-09T02:33:38.246Z,17.25
2022-08-09T02:36:14.786Z,17.33
2022-08-09T02:38:47.434Z,17.31
2022-08-09T02:41:16.424Z,17.32
2022-08-09T02:43:53.753Z,17.38
2022-08-09T02:46:22.831Z,17.46
2022-08-09T02:48:51.464Z,17.47
2022-08-09T02:51:19.807Z,17.51
2022-08-09T02:53:59.571Z,17.51
2022-08-09T02:56:29.169Z,17.51
2022-08-09T02:58:56.065Z,17.54
2022-08-09T03:01:29.648Z,17.49
2022-08-09T03:04:17.316Z,17.57
2022-08-09T03:06:46.218Z,17.57
2022-08-09T03:09:16.189Z,17.52
2022-08-09T03:12:06.556Z,17.49
2022-08-09T03:14:31.826Z,17.45
2022-08-09T03:16:59.809Z,17.44
2022-08-09T03:19:59.416Z,17.43
2022-08-09T03:22:30.478Z,17.48
2022-08-09T03:25:05.889Z,17.48
2022-08-09T03:27:47.139Z,17.51
2022-08-09T03:30:30.184Z,17.48
2022-08-09T03:33:01.861Z,17.45
2022-08-09T03:36:11.813Z,17.46
2022-08-09T03:38:29.009Z,17.40
2022-08-09T03:40:57.693Z,17.39
2022-08-09T03:43:24.159Z,17.32
2022-08-09T03:46:04.475Z,17.35
2022-08-09T03:48:51.452Z,17.31
2022-08-09T03:51:55.224Z,17.23
2022-08-09T03:54:06.454Z,17.17
2022-08-09T03:56:38.023Z,17.23
2022-08-09T03:59:08.648Z,17.23
2022-08-09T04:01:41.364Z,17.19
2022-08-09T04:04:10.130Z,17.13
2022-08-09T04:06:48.677Z,17.14
2022-08-09T04:09:41.510Z,17.15
2022-08-09T04:12:30.728Z,17.15
2022-08-09T04:15:01.865Z,17.16
2022-08-09T04:17:37.669Z,17.23
2022-08-09T04:20:06.758Z,17.18
2022-08-09T04:22:33.849Z,17.27
2022-08-09T04:25:01.399Z,17.24
2022-08-09T04:27:29.601Z,17.25
2022-08-09T04:29:56.335Z,17.26
2022-08-09T04:32:31.276Z,17.33
2022-08-09T04:34:58.039Z,17.29
2022-08-09T04:37:24.374Z,17.30
2022-08-09T04:40:11.589Z,17.30
2022-08-09T04:42:45.777Z,17.29
2022-08-09T04:45:15.082Z,17.30
2022-08-09T04:47:58.564Z,17.34
2022-08-09T04:50:33.594Z,17.36
2022-08-09T04:53:01.993Z,17.40
2022-08-09T04:55:37.865Z,17.35
2022-08-09T04:58:09.423Z,17.27
2022-08-09T05:00:36.601Z,17.33
2022-08-09T05:03:12.593Z,17.42
2022-08-09T05:05:52.384Z,17.39
2022-08-09T05:08:30.708Z,17.39
2022-08-09T05:10:57.510Z,17.41
2022-08-09T05:13:27.452Z,17.45
2022-08-09T05:15:56.965Z,17.46
2022-08-09T05:18:39.147Z,17.48
2022-08-09T05:21:22.769Z,17.48
2022-08-09T05:24:00.249Z,17.47
2022-08-09T05:26:36.283Z,17.50
2022-08-09T05:29:17.268Z,17.56
2022-08-09T05:31:47.563Z,17.59
2022-08-09T05:34:17.433Z,17.60
2022-08-09T05:36:46.811Z,17.66
2022-08-09T05:39:13.808Z,17.73
2022-08-09T05:41:55.182Z,17.78
2022-08-09T05:44:22.187Z,17.78
2022-08-09T05:46:55.619Z,17.85
2022-08-09T05:50:23.278Z,17.85
2022-08-09T05:52:09.950Z,17.89
2022-08-09T05:54:36.785Z,17.95
2022-08-09T05:57:06.300Z,18.01
2022-08-09T05:59:32.990Z,18.07
2022-08-09T06:01:59.944Z,18.18
2022-08-09T06:04:34.631Z,18.21
2022-08-09T06:07:01.475Z,18.29
2022-08-09T06:09:54.512Z,18.37
2022-08-09T06:12:14.166Z,18.44
2022-08-09T06:14:40.533Z,18.46
2022-08-09T06:17:09.313Z,18.48
2022-08-09T06:19:36.568Z,18.59
2022-08-09T06:22:03.483Z,18.67
2022-08-09T06:24:29.857Z,18.74
2022-08-09T06:26:57.842Z,18.75
2022-08-09T06:29:24.865Z,18.86
2022-08-09T06:32:17.157Z,18.92
2022-08-09T06:34:39.829Z,18.98
2022-08-09T06:37:06.613Z,19.04
2022-08-09T06:39:57.920Z,19.09
2022-08-09T06:42:24.694Z,19.13
2022-08-09T06:44:58.061Z,19.19
2022-08-09T06:47:24.468Z,19.26
2022-08-09T06:50:14.442Z,19.37
2022-08-09T06:52:40.054Z,19.44
2022-08-09T06:55:12.859Z,19.52
2022-08-09T06:58:01.841Z,19.63
2022-08-09T07:00:55.352Z,19.70
2022-08-09T07:03:12.781Z,19.73
2022-08-09T07:05:58.304Z,19.84
2022-08-09T07:08:26.754Z,19.91
2022-08-09T07:10:56.941Z,19.99
2022-08-09T07:13:28.111Z,20.09
2022-08-09T07:16:41.231Z,20.17
2022-08-09T07:18:42.985Z,20.33
2022-08-09T07:21:09.399Z,20.37
2022-08-09T07:23:36.655Z,20.48
2022-08-09T07:26:22.673Z,20.55
2022-08-09T07:29:08.133Z,20.62
2022-08-09T07:31:38.636Z,20.69
2022-08-09T07:34:21.046Z,20.77
2022-08-09T07:36:48.165Z,20.83
2022-08-09T07:39:20.579Z,20.90
2022-08-09T07:42:01.002Z,20.94
2022-08-09T07:44:50.908Z,21.01
2022-08-09T07:47:15.689Z,21.03
2022-08-09T07:50:04.264Z,21.09
2022-08-09T07:52:29.250Z,21.19
2022-08-09T07:54:56.582Z,21.26
2022-08-09T07:57:23.904Z,21.32
2022-08-09T08:00:03.067Z,21.33
2022-08-09T08:02:30.513Z,21.42
2022-08-09T08:04:56.933Z,21.43
2022-08-09T08:08:44.301Z,21.45
2022-08-09T08:10:11.712Z,21.53
2022-08-09T08:12:43.703Z,21.62
2022-08-09T08:15:13.914Z,21.67
2022-08-09T08:17:54.536Z,21.71
2022-08-09T08:20:28.692Z,21.72
2022-08-09T08:23:01.575Z,21.75
2022-08-09T08:25:44.372Z,21.76
2022-08-09T08:28:14.385Z,21.79
2022-08-09T08:30:41.999Z,21.87
2022-08-09T08:33:11.879Z,21.99
2022-08-09T08:35:58.598Z,21.96
2022-08-09T08:38:27.984Z,22.00
2022-08-09T08:40:55.608Z,22.03
2022-08-09T08:43:23.624Z,22.08
2022-08-09T08:46:09.823Z,22.12
2022-08-09T08:48:51.842Z,22.13
2022-08-09T08:51:20.650Z,22.17
2022-08-09T08:54:03.881Z,22.15
2022-08-09T08:56:33.539Z,22.14
2022-08-09T08:59:07.918Z,22.12
2022-08-09T09:01:52.920Z,22.19
2022-08-09T09:04:26.837Z,22.27
2022-08-09T09:06:56.893Z,22.37
2022-08-09T09:09:57.968Z,22.43
2022-08-09T09:12:16.791Z,22.52
2022-08-09T09:14:44.217Z,22.58
2022-08-09T09:17:11.213Z,22.51
2022-08-09T09:19:43.301Z,22.58
2022-08-09T09:22:12.612Z,22.65
2022-08-09T09:24:43.318Z,22.70
2022-08-09T09:27:21.792Z,22.74
2022-08-09T09:30:10.608Z,22.79
2022-08-09T09:32:42.554Z,22.85
2022-08-09T09:35:10.335Z,22.82
2022-08-09T09:37:40.545Z,22.85
2022-08-09T09:40:07.566Z,22.92
2022-08-09T09:42:35.281Z,22.91
2022-08-09T09:45:04.155Z,22.97
2022-08-09T09:47:32.665Z,22.94
2022-08-09T09:50:15.334Z,22.78
2022-08-09T09:52:54.777Z,22.95
2022-08-09T09:55:28.281Z,22.91
2022-08-09T09:58:15.823Z,22.94
2022-08-09T10:00:54.597Z,22.84
2022-08-09T10:03:42.620Z,22.88
2022-08-09T10:06:10.059Z,22.92
2022-08-09T10:08:43.068Z,22.90
2022-08-09T10:11:56.990Z,22.81
2022-08-09T10:14:27.330Z,22.72
2022-08-09T10:17:11.537Z,22.82
2022-08-09T10:19:43.616Z,22.79
2022-08-09T10:22:12.267Z,22.81
2022-08-09T10:24:40.013Z,22.94
2022-08-09T10:27:10.101Z,22.99
2022-08-09T10:30:22.075Z,23.07
2022-08-09T10:32:40.093Z,23.07
2022-08-09T10:35:09.726Z,23.10
2022-08-09T10:37:38.936Z,23.14
2022-08-09T10:40:06.378Z,23.08
2022-08-09T10:42:38.609Z,23.19
2022-08-09T10:45:11.911Z,23.03
2022-08-09T10:48:17.022Z,23.15
2022-08-09T10:51:29.748Z,23.16
2022-08-09T10:54:12.467Z,23.20
2022-08-09T10:56:40.680Z,23.12
2022-08-09T10:59:23.156Z,23.14
2022-08-09T11:03:13.481Z,22.85
2022-08-09T11:04:37.032Z,23.16
2022-08-09T11:07:26.676Z,23.07
2022-08-09T11:09:56.469Z,22.95
2022-08-09T11:12:30.249Z,23.12
2022-08-09T11:14:58.568Z,23.15
2022-08-09T11:17:25.054Z,23.16
2022-08-09T11:20:19.865Z,23.21
2022-08-09T11:22:57.186Z,23.15
2022-08-09T11:25:36.014Z,23.21
2022-08-09T11:28:54.465Z,23.23
2022-08-09T11:31:50.309Z,23.31
2022-08-09T11:34:24.455Z,23.24
2022-08-09T11:36:51.702Z,23.26
2022-08-09T11:39:18.074Z,23.26
2022-08-09T11:41:45.185Z,23.28
2022-08-09T11:44:11.693Z,23.26
2022-08-09T11:46:53.828Z,23.22
2022-08-09T11:49:42.979Z,23.09
2022-08-09T11:53:03.371Z,22.97
2022-08-09T11:55:53.108Z,23.07
2022-08-09T11:58:32.322Z,23.08
2022-08-09T12:01:00.922Z,23.12
2022-08-09T12:03:55.429Z,23.18
2022-08-09T12:06:24.693Z,23.13
2022-08-09T12:08:54.019Z,23.19
2022-08-09T12:11:21.588Z,23.11
2022-08-09T12:14:07.916Z,23.08
2022-08-09T12:16:43.288Z,23.15
2022-08-09T12:19:12.265Z,23.21
2022-08-09T12:21:50.340Z,23.18
2022-08-09T12:24:24.562Z,23.23
2022-08-09T12:29:15.549Z,23.32
2022-08-09T12:29:52.694Z,23.38
2022-08-09T12:32:26.982Z,23.48
2022-08-09T12:34:58.104Z,23.57
2022-08-09T12:37:30.923Z,23.61
2022-08-09T12:40:02.102Z,23.61
2022-08-09T12:42:28.638Z,23.63
2022-08-09T12:44:56.729Z,23.76
2022-08-09T12:47:26.192Z,23.69
2022-08-09T12:50:11.010Z,23.81
2022-08-09T12:52:44.191Z,23.75
2022-08-09T12:56:15.385Z,23.79
2022-08-09T12:58:27.250Z,23.49
2022-08-09T13:00:55.172Z,23.47
2022-08-09T13:03:53.271Z,23.64
2022-08-09T13:06:35.868Z,23.62
2022-08-09T13:09:02.423Z,23.52
2022-08-09T13:11:33.361Z,23.47
2022-08-09T13:14:42.268Z,23.49
2022-08-09T13:16:56.540Z,23.40
2022-08-09T13:19:26.223Z,23.40
2022-08-09T13:22:36.660Z,23.46
2022-08-09T13:25:04.838Z,23.56
2022-08-09T13:27:39.927Z,23.31
2022-08-09T13:31:10.932Z,23.34
2022-08-09T13:33:03.100Z,23.54
2022-08-09T13:35:34.497Z,23.73
2022-08-09T13:38:02.484Z,23.75
2022-08-09T13:41:46.924Z,23.80
2022-08-09T13:43:19.005Z,23.81
2022-08-09T13:46:44.752Z,23.61
2022-08-09T13:48:32.388Z,23.79
2022-08-09T13:50:58.770Z,23.71
2022-08-09T13:53:39.598Z,23.82
2022-08-09T13:56:12.249Z,23.68
2022-08-09T13:58:38.630Z,23.77
2022-08-09T14:01:04.954Z,23.77
2022-08-09T14:04:04.965Z,23.90
2022-08-09T14:06:26.743Z,23.81
2022-08-09T14:08:55.871Z,23.87
2022-08-09T14:11:22.232Z,23.92
2022-08-09T14:14:24.005Z,23.61
2022-08-09T14:16:36.044Z,23.91
2022-08-09T14:19:03.465Z,23.86
2022-08-09T14:21:31.936Z,23.94
2022-08-09T14:24:01.275Z,23.89
2022-08-09T14:26:37.683Z,23.96
2022-08-09T14:29:07.482Z,23.96
2022-08-09T14:31:49.742Z,23.92
2022-08-09T14:34:30.912Z,23.99
2022-08-09T14:36:59.391Z,23.98
2022-08-09T14:39:40.159Z,23.77
2022-08-09T14:42:12.400Z,23.94
2022-08-09T14:44:48.169Z,23.76
2022-08-09T14:47:41.340Z,23.98
2022-08-09T14:50:02.630Z,23.85
2022-08-09T14:52:29.091Z,23.98
2022-08-09T14:54:55.441Z,23.92
2022-08-09T14:57:22.031Z,23.88
2022-08-09T14:59:58.334Z,24.08
2022-08-09T15:02:24.714Z,23.58
2022-08-09T15:04:51.037Z,23.93
2022-08-09T15:07:17.778Z,23.89
2022-08-09T15:10:04.507Z,23.87
2022-08-09T15:12:31.884Z,24.04
2022-08-09T15:14:58.367Z,24.06
2022-08-09T15:17:25.382Z,23.70
2022-08-09T15:19:59.874Z,23.90
2022-08-09T15:22:29.287Z,23.88
2022-08-09T15:24:55.593Z,23.87
2022-08-09T15:27:22.064Z,24.00
2022-08-09T15:30:48.889Z,23.97
2022-08-09T15:32:36.870Z,23.62
2022-08-09T15:35:18.451Z,23.69
2022-08-09T15:37:56.682Z,23.96
2022-08-09T15:40:37.704Z,23.87
2022-08-09T15:43:13.463Z,23.88
2022-08-09T15:46:08.046Z,23.92
2022-08-09T15:48:31.785Z,23.87
2022-08-09T15:50:58.788Z,23.96
2022-08-09T15:54:02.768Z,23.75
2022-08-09T15:56:23.350Z,23.81
2022-08-09T15:58:55.893Z,23.83
2022-08-09T16:01:22.689Z,23.42
2022-08-09T16:03:50.136Z,23.74
2022-08-09T16:06:32.868Z,23.83
2022-08-09T16:09:04.931Z,23.82
2022-08-09T16:11:33.202Z,23.75
2022-08-09T16:14:06.042Z,23.76
2022-08-09T16:16:34.599Z,23.84
2022-08-09T16:19:03.834Z,23.82
2022-08-09T16:21:31.515Z,23.89
2022-08-09T16:24:02.334Z,23.66
2022-08-09T16:26:33.742Z,23.88
2022-08-09T16:29:10.621Z,23.81
2022-08-09T16:32:19.711Z,23.82
2022-08-09T16:34:24.870Z,23.86
2022-08-09T16:36:51.326Z,23.79
2022-08-09T16:39:17.899Z,23.58
2022-08-09T16:42:03.206Z,23.52
2022-08-09T16:44:31.917Z,23.76
2022-08-09T16:47:04.241Z,23.74
2022-08-09T16:50:30.566Z,23.68
2022-08-09T16:52:31.250Z,23.76
2022-08-09T16:54:58.006Z,23.34
2022-08-09T16:57:24.558Z,23.72
2022-08-09T16:59:57.903Z,23.70
2022-08-09T17:02:33.665Z,23.46
2022-08-09T17:05:00.540Z,23.36
2022-08-09T17:08:44.818Z,23.33
2022-08-09T17:10:17.866Z,23.41
2022-08-09T17:12:47.533Z,23.43
2022-08-09T17:15:30.769Z,23.51
2022-08-09T17:18:04.582Z,23.59
2022-08-09T17:20:36.034Z,23.36
2022-08-09T17:23:05.493Z,23.58
2022-08-09T17:25:37.121Z,23.47
2022-08-09T17:28:05.468Z,23.55
2022-08-09T17:30:31.806Z,23.28
2022-08-09T17:33:05.705Z,23.47
2022-08-09T17:35:48.209Z,23.31
2022-08-09T17:38:30.789Z,22.96
2022-08-09T17:41:01.375Z,23.15
2022-08-09T17:43:34.799Z,23.10
2022-08-09T17:46:06.671Z,23.03
2022-08-09T17:48:34.642Z,22.92
2022-08-09T17:51:10.231Z,23.11
2022-08-09T17:53:51.370Z,23.12
2022-08-09T17:56:19.890Z,23.20
2022-08-09T17:58:47.019Z,23.04
2022-08-09T18:01:22.257Z,22.93
2022-08-09T18:03:49.459Z,22.99
2022-08-09T18:06:32.348Z,22.95
2022-08-09T18:09:03.968Z,22.88
2022-08-09T18:12:05.162Z,22.79
2022-08-09T18:14:22.166Z,22.72
2022-08-09T18:16:49.707Z,22.71
2022-08-09T18:20:55.738Z,22.70
2022-08-09T18:22:03.442Z,22.58
2022-08-09T18:24:29.784Z,22.56
2022-08-09T18:26:57.552Z,22.50
2022-08-09T18:30:39.328Z,22.45
2022-08-09T18:32:13.922Z,22.42
2022-08-09T18:34:45.521Z,22.36
2022-08-09T18:37:48.595Z,22.21
2022-08-09T18:39:58.519Z,22.20
2022-08-09T18:42:29.543Z,22.22
2022-08-09T18:44:56.211Z,22.04
2022-08-09T18:47:24.496Z,22.03
2022-08-09T18:49:54.253Z,21.94
2022-08-09T18:52:24.837Z,21.77
2022-08-09T18:54:54.824Z,21.66
2022-08-09T18:57:22.147Z,21.48
2022-08-09T18:59:55.146Z,21.50
2022-08-09T19:02:32.076Z,21.32
2022-08-09T19:05:03.655Z,21.31
2022-08-09T19:07:41.299Z,21.09
2022-08-09T19:10:16.618Z,20.99
2022-08-09T19:12:45.535Z,20.83
2022-08-09T19:15:17.171Z,20.58
2022-08-09T19:17:56.187Z,20.54
2022-08-09T19:20:24.972Z,20.66
2022-08-09T19:22:54.662Z,20.62
2022-08-09T19:25:41.754Z,20.68
2022-08-09T19:28:08.152Z,20.71
2022-08-09T19:30:40.322Z,20.73
2022-08-09T19:33:19.067Z,20.72
2022-08-09T19:35:56.847Z,20.79
2022-08-09T19:38:24.114Z,20.72
2022-08-09T19:40:50.722Z,20.71
2022-08-09T19:43:58.283Z,20.57
2022-08-09T19:46:04.112Z,20.55
2022-08-09T19:49:01.668Z,20.50
2022-08-09T19:51:17.738Z,20.42
2022-08-09T19:53:45.493Z,20.43
2022-08-09T19:56:15.719Z,20.25
2022-08-09T19:58:42.185Z,20.30
2022-08-09T20:01:25.710Z,20.26
2022-08-09T20:04:23.814Z,20.27
2022-08-09T20:06:56.279Z,20.28
2022-08-09T20:09:44.766Z,20.15
2022-08-09T20:12:31.669Z,19.99
2022-08-09T20:14:58.746Z,19.89
2022-08-09T20:17:26.131Z,19.79
2022-08-09T20:19:57.416Z,19.87
2022-08-09T20:22:32.133Z,19.89
2022-08-09T20:25:02.114Z,19.84
2022-08-09T20:27:31.245Z,19.72
2022-08-09T20:29:58.761Z,19.58
2022-08-09T20:32:30.694Z,19.43
2022-08-09T20:35:02.529Z,19.43
2022-08-09T20:38:18.574Z,19.37
2022-08-09T20:40:26.570Z,19.29
2022-08-09T20:43:00.473Z,19.28
2022-08-09T20:45:58.596Z,19.17
2022-08-09T20:48:30.583Z,19.20
2022-08-09T20:50:58.471Z,19.20
2022-08-09T20:53:36.703Z,19.26
2022-08-09T20:56:17.360Z,19.19
2022-08-09T20:58:47.867Z,19.13
2022-08-09T21:01:35.267Z,19.20
2022-08-09T21:05:48.343Z,19.20
2022-08-09T21:06:48.851Z,19.10
2022-08-09T21:09:16.552Z,19.09
2022-08-09T21:14:33.841Z,19.17
2022-08-09T21:17:02.306Z,19.12
2022-08-09T21:20:17.245Z,18.94
2022-08-09T21:22:38.642Z,18.98
2022-08-09T21:25:25.075Z,18.96
2022-08-09T21:27:53.247Z,18.97
2022-08-09T21:30:22.413Z,18.93
2022-08-09T21:32:49.295Z,18.77
2022-08-09T21:35:16.505Z,18.77
2022-08-09T21:37:58.597Z,18.64
2022-08-09T21:40:30.375Z,18.71
2022-08-09T21:42:58.088Z,18.67
2022-08-09T21:45:24.579Z,18.59
2022-08-09T21:47:51.919Z,18.64
2022-08-09T21:50:22.992Z,18.60
2022-08-09T21:53:00.270Z,18.57
2022-08-09T21:55:27.405Z,18.59
2022-08-09T21:57:59.829Z,18.59
2022-08-09T22:00:32.194Z,18.51
2022-08-09T22:03:00.749Z,18.43
2022-08-09T22:05:36.791Z,18.41
2022-08-09T22:08:13.745Z,18.35
2022-08-09T22:11:49.452Z,18.43
2022-08-09T22:13:31.581Z,18.28
2022-08-09T22:16:03.624Z,18.25
2022-08-09T22:18:32.740Z,18.25
2022-08-09T22:20:59.837Z,18.25
2022-08-09T22:23:26.892Z,18.19
2022-08-09T22:26:07.194Z,17.99
2022-08-09T22:28:47.115Z,18.02
2022-08-09T22:31:19.345Z,17.97
2022-08-09T22:33:49.131Z,18.07
2022-08-09T22:36:22.111Z,17.96
2022-08-09T22:38:48.686Z,18.00
2022-08-09T22:41:15.087Z,17.84
2022-08-09T22:44:01.367Z,17.79
2022-08-09T22:48:17.101Z,17.79
2022-08-09T22:49:15.268Z,17.70
2022-08-09T22:51:49.210Z,17.57
2022-08-09T22:54:16.322Z,17.41
2022-08-09T22:56:47.777Z,17.07
2022-08-09T22:59:57.578Z,16.87
2022-08-09T23:02:07.298Z,16.54
2022-08-09T23:04:34.614Z,16.53
2022-08-09T23:07:31.078Z,16.39
2022-08-09T23:10:09.938Z,16.21
2022-08-09T23:12:36.249Z,16.13
2022-08-09T23:15:02.736Z,16.16
2022-08-09T23:17:30.468Z,16.15
2022-08-09T23:20:00.703Z,16.02
2022-08-09T23:22:33.846Z,16.01
2022-08-09T23:25:00.209Z,15.90
2022-08-09T23:27:26.535Z,15.97
2022-08-09T23:29:52.835Z,16.19
2022-08-09T23:32:19.153Z,16.31
2022-08-09T23:34:45.711Z,16.41
2022-08-09T23:37:12.058Z,16.40
2022-08-09T23:39:38.535Z,16.52
2022-08-09T23:42:05.730Z,16.59
2022-08-09T23:44:32.205Z,16.55
2022-08-09T23:46:58.510Z,16.54
2022-08-09T23:49:25.694Z,16.57
2022-08-09T23:51:52.717Z,16.61
2022-08-09T23:54:19.854Z,16.63
2022-08-09T23:56:54.360Z,16.63
2022-08-09T23:59:22.005Z,16.59
